Time;durP1;ratioP1;P1;durP2;ratioP2;P2;SDS_P1;SDS_P2;PMS_P1;PMS_P2;Temp;Humidity;BMP_temperature;BMP_pressure;BME280_temperature;BME280_humidity;BME280_pressure;Samples;Min_cycle;Max_cycle;Signal;HPM_P1;HPM_P2
2022/06/25 00:01:48;;;;;;;9.53;7.70;;;17.50;99.90;;;;;;5073873;28;20510;-76
2022/06/25 00:06:58;;;;;;;10.33;8.10;;;17.70;99.90;;;;;;5062764;28;20662;-77
2022/06/25 00:09:23;;;;;;;14.63;7.57;;;17.60;99.90;;;;;;5071944;28;20426;-77
2022/06/25 00:14:33;;;;;;;10.53;7.47;;;17.70;99.90;;;;;;5060579;28;20292;-76
2022/06/25 00:16:58;;;;;;;9.13;7.60;;;17.70;99.90;;;;;;5073396;28;20426;-76
2022/06/25 00:19:24;;;;;;;7.57;6.53;;;17.70;99.90;;;;;;5073289;28;20185;-77
2022/06/25 00:21:50;;;;;;;8.10;6.93;;;17.70;99.90;;;;;;5073102;28;20186;-77
2022/06/25 00:24:16;;;;;;;9.40;7.13;;;17.70;99.90;;;;;;5073261;28;20655;-75
2022/06/25 00:26:43;;;;;;;8.67;6.67;;;17.70;99.90;;;;;;5073441;28;20394;-77
2022/06/25 00:29:10;;;;;;;11.90;6.80;;;17.70;99.90;;;;;;5073348;28;20440;-76
2022/06/25 00:31:36;;;;;;;16.10;7.03;;;17.70;99.90;;;;;;5073322;28;20434;-77
2022/06/25 00:34:02;;;;;;;10.50;6.80;;;17.60;99.90;;;;;;5073121;28;20483;-77
2022/06/25 00:36:28;;;;;;;6.97;6.20;;;17.60;99.90;;;;;;5072591;28;20800;-77
2022/06/25 00:38:54;;;;;;;15.73;6.33;;;17.60;99.90;;;;;;5069792;28;20483;-83
2022/06/25 00:41:19;;;;;;;14.97;7.20;;;17.60;99.90;;;;;;5067637;28;20238;-84
2022/06/25 00:43:45;;;;;;;10.97;6.63;;;17.60;99.90;;;;;;5061405;28;20208;-83
2022/06/25 00:46:10;;;;;;;16.03;7.20;;;17.60;99.90;;;;;;5072273;28;20191;-84
2022/06/25 00:48:36;;;;;;;10.70;6.30;;;17.60;99.90;;;;;;5074103;28;20187;-84
2022/06/25 00:51:09;;;;;;;9.80;6.43;;;17.50;99.90;;;;;;5073428;28;20267;-84
2022/06/25 00:53:39;;;;;;;10.00;6.20;;;17.50;99.90;;;;;;5072455;28;20229;-76
2022/06/25 00:56:07;;;;;;;15.73;7.00;;;17.40;99.20;;;;;;5073124;28;20893;-76
2022/06/25 00:58:34;;;;;;;20.90;8.20;;;17.40;99.00;;;;;;5071528;28;20438;-77
2022/06/25 01:01:00;;;;;;;12.13;6.30;;;17.40;97.70;;;;;;5072624;28;20405;-76
2022/06/25 01:03:26;;;;;;;10.93;5.63;;;17.30;98.10;;;;;;5072726;28;20439;-77
2022/06/25 01:05:53;;;;;;;8.67;6.37;;;17.20;99.50;;;;;;5072863;28;20414;-77
2022/06/25 01:08:23;;;;;;;9.87;6.40;;;17.20;99.60;;;;;;5073121;28;20492;-83
2022/06/25 01:10:49;;;;;;;9.70;6.50;;;17.10;99.80;;;;;;5073423;28;21082;-84
2022/06/25 01:13:14;;;;;;;14.93;7.70;;;17.00;99.90;;;;;;5073318;28;20581;-84
2022/06/25 01:15:40;;;;;;;19.00;7.30;;;17.00;99.90;;;;;;5072945;28;20191;-84
2022/06/25 01:18:07;;;;;;;10.40;7.03;;;17.00;99.90;;;;;;5073536;28;20492;-84
2022/06/25 01:20:34;;;;;;;7.97;6.40;;;17.00;99.90;;;;;;5073156;28;20648;-84
2022/06/25 01:22:59;;;;;;;12.97;6.87;;;16.90;99.90;;;;;;5063857;28;20416;-84
2022/06/25 01:25:32;;;;;;;14.67;6.70;;;16.90;99.90;;;;;;5070036;28;20442;-76
2022/06/25 01:27:57;;;;;;;14.63;6.60;;;16.90;99.90;;;;;;5064341;28;20304;-77
2022/06/25 01:30:23;;;;;;;9.60;6.53;;;16.90;99.90;;;;;;5072374;28;20865;-76
2022/06/25 01:32:49;;;;;;;23.67;7.67;;;16.80;99.90;;;;;;5072775;28;20270;-77
2022/06/25 01:35:14;;;;;;;15.83;7.43;;;16.80;99.90;;;;;;5072394;28;20569;-77
2022/06/25 01:37:40;;;;;;;10.73;6.73;;;16.70;99.90;;;;;;5060110;28;20187;-76
2022/06/25 01:40:06;;;;;;;13.87;7.80;;;16.70;99.90;;;;;;5070694;28;20307;-76
2022/06/25 01:45:17;;;;;;;11.10;7.50;;;16.70;99.90;;;;;;5072191;28;20499;-77
2022/06/25 01:47:42;;;;;;;11.00;7.80;;;16.70;99.90;;;;;;5072044;28;20764;-77
2022/06/25 01:50:09;;;;;;;12.20;7.33;;;16.70;99.90;;;;;;5072236;28;20176;-77
2022/06/25 01:52:35;;;;;;;8.37;7.47;;;16.60;99.90;;;;;;5073135;28;20631;-76
2022/06/25 01:55:01;;;;;;;15.13;7.90;;;16.60;99.90;;;;;;5076452;28;20442;-84
2022/06/25 01:57:27;;;;;;;12.73;8.13;;;16.60;99.90;;;;;;5076699;28;20184;-84
2022/06/25 01:59:52;;;;;;;12.87;8.80;;;16.50;99.90;;;;;;5076527;28;20964;-83
2022/06/25 02:02:18;;;;;;;19.13;7.67;;;16.60;99.90;;;;;;5077038;28;20191;-84
2022/06/25 02:04:44;;;;;;;23.50;8.37;;;16.50;99.90;;;;;;5076325;28;20207;-84
2022/06/25 02:07:09;;;;;;;24.30;9.33;;;16.50;99.90;;;;;;5076816;28;20230;-84
2022/06/25 02:09:35;;;;;;;16.77;9.53;;;16.50;99.90;;;;;;5076877;28;20190;-83
2022/06/25 02:12:01;;;;;;;16.00;8.87;;;16.40;99.90;;;;;;5076853;28;20188;-84
2022/06/25 02:14:27;;;;;;;14.00;9.50;;;16.40;99.90;;;;;;5076345;28;20452;-84
2022/06/25 02:16:53;;;;;;;33.67;9.50;;;16.40;99.90;;;;;;5076469;28;20429;-84
2022/06/25 02:19:19;;;;;;;18.30;9.30;;;16.40;99.90;;;;;;5076461;28;20174;-84
2022/06/25 02:21:45;;;;;;;16.30;9.80;;;16.30;99.90;;;;;;5076114;28;20417;-84
2022/06/25 02:24:11;;;;;;;19.50;10.10;;;16.40;99.90;;;;;;5063563;28;20655;-77
2022/06/25 02:26:36;;;;;;;16.50;9.87;;;16.40;99.90;;;;;;5075723;28;20682;-76
2022/06/25 02:29:02;;;;;;;16.90;9.00;;;16.40;99.90;;;;;;5075491;28;20635;-77
2022/06/25 02:31:28;;;;;;;17.80;10.00;;;16.40;99.90;;;;;;5075673;28;20175;-77
2022/06/25 02:33:54;;;;;;;16.50;9.23;;;16.40;99.90;;;;;;5075471;28;20422;-77
2022/06/25 02:36:20;;;;;;;18.00;9.27;;;16.40;99.90;;;;;;5076317;28;20455;-77
2022/06/25 02:38:45;;;;;;;24.03;9.47;;;16.40;99.90;;;;;;5075767;28;20662;-77
2022/06/25 02:41:11;;;;;;;15.90;9.50;;;16.40;99.90;;;;;;5075383;28;20653;-76
2022/06/25 02:43:37;;;;;;;17.37;8.77;;;16.30;99.90;;;;;;5062190;28;20210;-77
2022/06/25 02:46:02;;;;;;;13.53;9.10;;;16.30;99.90;;;;;;5075438;28;20519;-77
2022/06/25 02:48:28;;;;;;;12.70;9.73;;;16.30;99.90;;;;;;5075162;28;20751;-77
2022/06/25 02:50:54;;;;;;;15.80;9.40;;;16.30;99.90;;;;;;5075046;28;20187;-77
2022/06/25 02:53:19;;;;;;;17.27;10.10;;;16.20;99.90;;;;;;5075268;28;20185;-76
2022/06/25 03:01:13;;;;;;;24.60;10.00;;;16.10;99.90;;;;;;5075706;28;20837;-84
2022/06/25 03:03:39;;;;;;;30.13;10.60;;;16.10;99.90;;;;;;5075782;28;20492;-84
2022/06/25 03:06:04;;;;;;;19.90;11.07;;;16.10;99.90;;;;;;5073677;28;20186;-84
2022/06/25 03:08:30;;;;;;;18.67;10.60;;;16.10;99.90;;;;;;5074486;28;20285;-83
2022/06/25 03:10:56;;;;;;;13.93;10.17;;;16.10;99.90;;;;;;5075162;28;20205;-76
2022/06/25 03:13:21;;;;;;;15.03;10.23;;;16.20;99.90;;;;;;5074803;28;20713;-77
2022/06/25 03:15:47;;;;;;;24.73;10.70;;;16.20;99.90;;;;;;5074371;28;20190;-77
2022/06/25 03:18:12;;;;;;;21.83;10.20;;;16.20;99.90;;;;;;5074651;28;20187;-76
2022/06/25 03:20:38;;;;;;;26.53;11.60;;;16.20;99.90;;;;;;5074762;28;20257;-77
2022/06/25 03:23:04;;;;;;;14.03;10.30;;;16.20;99.90;;;;;;5074195;28;20618;-77
2022/06/25 03:25:30;;;;;;;14.27;9.90;;;16.10;99.90;;;;;;5075446;28;20611;-84
2022/06/25 03:27:56;;;;;;;18.70;10.00;;;16.10;99.90;;;;;;5075656;28;20186;-84
2022/06/25 03:30:23;;;;;;;21.70;10.80;;;16.10;99.90;;;;;;5068511;28;20814;-84
2022/06/25 03:32:48;;;;;;;13.07;9.80;;;16.00;99.90;;;;;;5075055;28;20183;-84
2022/06/25 03:35:14;;;;;;;14.20;10.13;;;16.00;99.90;;;;;;5070779;28;20418;-84
2022/06/25 03:37:39;;;;;;;14.73;10.00;;;16.00;99.90;;;;;;5065856;28;20199;-84
2022/06/25 03:40:06;;;;;;;23.13;9.47;;;16.00;99.90;;;;;;5075281;28;20190;-77
2022/06/25 03:42:31;;;;;;;17.47;9.57;;;16.00;99.90;;;;;;5074083;28;20606;-77
2022/06/25 03:44:57;;;;;;;15.53;9.67;;;16.00;99.90;;;;;;5074268;28;20432;-77
2022/06/25 03:47:22;;;;;;;17.93;9.93;;;16.00;99.90;;;;;;5073838;28;20224;-77
2022/06/25 03:49:53;;;;;;;16.90;10.97;;;15.90;99.90;;;;;;5074159;28;20258;-77
2022/06/25 03:52:19;;;;;;;18.53;10.30;;;15.90;99.90;;;;;;5074077;28;20178;-77
2022/06/25 03:54:45;;;;;;;22.63;10.57;;;16.00;99.90;;;;;;5074445;28;20422;-84
2022/06/25 03:57:10;;;;;;;15.03;9.43;;;16.00;99.90;;;;;;5073400;28;20179;-84
2022/06/25 03:59:36;;;;;;;13.87;9.27;;;16.00;99.90;;;;;;5074463;28;20187;-84
2022/06/25 04:02:02;;;;;;;17.70;10.53;;;16.00;99.90;;;;;;5074345;28;20187;-84
2022/06/25 04:04:27;;;;;;;17.00;8.93;;;16.00;99.90;;;;;;5074646;28;20242;-84
2022/06/25 04:06:53;;;;;;;15.43;10.90;;;16.00;99.90;;;;;;5067807;28;20175;-84
2022/06/25 04:09:19;;;;;;;19.57;11.33;;;16.00;99.90;;;;;;5074677;28;20190;-84
2022/06/25 04:11:44;;;;;;;16.30;11.17;;;16.10;99.90;;;;;;5074072;28;20617;-77
2022/06/25 04:14:10;;;;;;;21.27;12.20;;;16.20;99.90;;;;;;5073668;28;20202;-77
2022/06/25 04:16:35;;;;;;;25.00;11.87;;;16.20;99.90;;;;;;5072080;28;20289;-76
2022/06/25 04:19:01;;;;;;;26.43;10.90;;;16.30;99.90;;;;;;5077916;28;20649;-77
2022/06/25 04:21:27;;;;;;;15.00;11.20;;;16.30;99.90;;;;;;5082332;28;20191;-76
2022/06/25 04:23:52;;;;;;;19.37;11.73;;;16.40;99.90;;;;;;5073217;28;20207;-76
2022/06/25 04:26:18;;;;;;;17.97;10.97;;;16.40;99.90;;;;;;5073702;28;20262;-76
2022/06/25 04:31:29;;;;;;;19.17;11.10;;;16.70;99.90;;;;;;5073140;28;20506;-77
2022/06/25 04:33:55;;;;;;;15.60;10.47;;;16.80;99.90;;;;;;5073134;28;21293;-77
2022/06/25 04:36:20;;;;;;;16.63;10.40;;;17.00;99.90;;;;;;5073320;28;20507;-77
2022/06/25 04:38:47;;;;;;;20.67;10.63;;;17.10;99.90;;;;;;5073018;28;20202;-77
2022/06/25 04:41:13;;;;;;;18.93;12.10;;;17.20;99.90;;;;;;5074077;28;20180;-84
2022/06/25 04:43:38;;;;;;;16.57;10.90;;;17.30;99.90;;;;;;5073682;28;20438;-78
2022/06/25 04:46:04;;;;;;;14.73;10.80;;;17.50;99.90;;;;;;5073082;28;20419;-78
2022/06/25 04:48:30;;;;;;;13.40;9.57;;;17.60;99.90;;;;;;5072939;28;20191;-78
2022/06/25 04:50:59;;;;;;;20.70;10.33;;;17.70;99.90;;;;;;5073046;28;20179;-78
2022/06/25 04:53:24;;;;;;;14.53;10.77;;;17.80;99.90;;;;;;5072615;28;20184;-77
2022/06/25 04:55:50;;;;;;;12.60;9.80;;;18.00;99.90;;;;;;5073790;28;20422;-76
2022/06/25 04:58:15;;;;;;;13.53;9.60;;;18.10;99.90;;;;;;5072952;28;20177;-76
2022/06/25 05:00:41;;;;;;;15.30;9.87;;;18.30;99.90;;;;;;5072337;28;20185;-77
2022/06/25 05:03:08;;;;;;;13.17;8.97;;;18.40;99.90;;;;;;5071707;28;20238;-76
2022/06/25 05:05:35;;;;;;;26.17;9.13;;;18.50;99.90;;;;;;5073611;28;20463;-77
2022/06/25 05:08:04;;;;;;;16.40;8.30;;;18.60;99.90;;;;;;5072895;28;20419;-77
2022/06/25 05:10:32;;;;;;;15.30;8.97;;;18.60;95.40;;;;;;5073111;28;20848;-77
2022/06/25 05:13:13;;;;;;;10.57;8.63;;;18.50;93.60;;;;;;5072624;28;20450;-76
2022/06/25 05:15:40;;;;;;;12.23;8.27;;;18.60;85.90;;;;;;5072576;28;20460;-79
2022/06/25 05:18:07;;;;;;;9.97;7.80;;;18.60;78.00;;;;;;5066432;28;20875;-77
2022/06/25 05:20:42;;;;;;;16.73;8.53;;;18.60;65.50;;;;;;5072635;28;20439;-77
2022/06/25 05:23:09;;;;;;;13.13;8.40;;;18.70;61.90;;;;;;5072283;28;20808;-77
2022/06/25 05:25:36;;;;;;;9.90;8.07;;;18.70;49.70;;;;;;5079223;28;20458;-77
2022/06/25 05:28:02;;;;;;;11.20;8.00;;;18.70;49.60;;;;;;5072185;28;20409;-77
2022/06/25 05:30:27;;;;;;;11.03;7.03;;;18.80;49.70;;;;;;5078714;28;20465;-77
2022/06/25 05:32:53;;;;;;;15.57;7.70;;;18.90;49.90;;;;;;5090775;28;20419;-77
2022/06/25 05:35:19;;;;;;;14.83;7.93;;;19.10;50.00;;;;;;5080847;28;20181;-77
2022/06/25 05:37:44;;;;;;;9.10;6.70;;;19.30;50.20;;;;;;5079166;28;20405;-77
2022/06/25 05:40:11;;;;;;;14.30;8.00;;;19.50;34.50;;;;;;5079174;28;20190;-77
2022/06/25 05:42:36;;;;;;;13.50;6.70;;;19.60;21.90;;;;;;5074682;28;20197;-77
2022/06/25 05:45:03;;;;;;;7.63;6.77;;;19.70;16.00;;;;;;5067481;28;20562;-77
2022/06/25 05:47:29;;;;;;;9.60;6.60;;;19.80;9.50;;;;;;5079313;28;20178;-77
2022/06/25 05:49:55;;;;;;;8.37;6.40;;;19.90;5.60;;;;;;5078558;28;20883;-77
2022/06/25 05:52:21;;;;;;;9.40;6.23;;;20.00;2.30;;;;;;5076822;28;20461;-77
2022/06/25 05:54:47;;;;;;;8.20;7.40;;;20.10;1.00;;;;;;5077537;28;20193;-77
2022/06/25 05:57:16;;;;;;;14.43;6.50;;;20.20;1.00;;;;;;5079462;28;20455;-88
2022/06/25 05:59:42;;;;;;;12.43;6.80;;;20.20;1.00;;;;;;5076018;28;20245;-81
2022/06/25 06:02:08;;;;;;;8.97;6.57;;;20.30;1.00;;;;;;5079001;28;20429;-80
2022/06/25 06:04:34;;;;;;;11.80;5.90;;;20.30;1.00;;;;;;5078603;28;20704;-80
2022/06/25 06:07:00;;;;;;;8.70;6.23;;;20.30;1.00;;;;;;5079092;28;20183;-81
2022/06/25 06:09:29;;;;;;;10.00;6.30;;;20.40;1.00;;;;;;5077481;28;20837;-80
2022/06/25 06:11:55;;;;;;;7.07;6.13;;;20.50;1.00;;;;;;5077994;28;20758;-81
2022/06/25 06:14:22;;;;;;;16.80;5.93;;;20.50;1.00;;;;;;5078541;28;20480;-81
2022/06/25 06:16:48;;;;;;;13.97;5.87;;;20.70;1.00;;;;;;5078539;28;20532;-81
2022/06/25 06:19:14;;;;;;;8.13;4.87;;;20.80;1.00;;;;;;5078683;28;20529;-81
2022/06/25 06:21:40;;;;;;;18.30;6.47;;;21.00;1.00;;;;;;5078417;28;20429;-80
2022/06/25 06:24:06;;;;;;;5.53;4.90;;;21.30;1.00;;;;;;5078226;28;20570;-80
2022/06/25 06:26:33;;;;;;;16.27;5.40;;;21.50;1.00;;;;;;5078990;28;20457;-81
2022/06/25 06:28:58;;;;;;;5.73;5.13;;;21.80;1.00;;;;;;5078730;28;20419;-80
2022/06/25 06:31:24;;;;;;;12.77;5.80;;;22.00;1.00;;;;;;5078388;28;20427;-80
2022/06/25 06:33:50;;;;;;;7.87;4.83;;;22.20;1.00;;;;;;5077455;28;20181;-80
2022/06/25 06:36:15;;;;;;;9.90;5.73;;;22.30;1.00;;;;;;5078533;28;20683;-80
2022/06/25 06:38:41;;;;;;;12.53;5.37;;;22.50;1.00;;;;;;5077821;28;20216;-80
2022/06/25 06:41:09;;;;;;;8.33;5.23;;;22.60;1.00;;;;;;5068216;28;20236;-81
2022/06/25 06:43:36;;;;;;;6.53;4.83;;;22.90;1.00;;;;;;5075789;28;20182;-83
2022/06/25 06:46:02;;;;;;;7.73;5.60;;;23.00;1.00;;;;;;5075893;28;20414;-84
2022/06/25 06:48:29;;;;;;;12.80;6.40;;;23.20;1.00;;;;;;5074017;28;20406;-84
2022/06/25 06:50:54;;;;;;;6.23;5.57;;;23.00;1.00;;;;;;5075796;28;20226;-84
2022/06/25 06:53:21;;;;;;;7.30;6.47;;;23.10;1.00;;;;;;5075592;28;20422;-83
2022/06/25 06:55:47;;;;;;;7.53;6.00;;;23.10;1.00;;;;;;5075419;28;20179;-84
2022/06/25 06:58:13;;;;;;;14.63;5.83;;;23.30;1.00;;;;;;5075106;28;20497;-79
2022/06/25 07:00:39;;;;;;;6.27;5.77;;;23.40;1.00;;;;;;5074003;28;20418;-80
2022/06/25 07:03:04;;;;;;;12.03;5.40;;;23.20;1.00;;;;;;5075018;28;20967;-81
2022/06/25 07:05:30;;;;;;;9.40;6.40;;;22.90;1.00;;;;;;5072696;28;20206;-78
2022/06/25 07:07:56;;;;;;;7.53;5.97;;;22.90;1.00;;;;;;5061505;28;20210;-80
2022/06/25 07:10:22;;;;;;;9.23;6.30;;;22.90;1.00;;;;;;5074742;28;20458;-79
2022/06/25 07:12:48;;;;;;;8.87;5.13;;;23.10;1.00;;;;;;5075498;28;20600;-83
2022/06/25 07:15:13;;;;;;;16.53;5.60;;;23.30;1.00;;;;;;5073066;28;20432;-84
2022/06/25 07:17:39;;;;;;;5.93;5.33;;;23.30;1.00;;;;;;5075093;28;20696;-84
2022/06/25 07:20:06;;;;;;;5.97;5.47;;;23.30;1.00;;;;;;5074132;28;20549;-83
2022/06/25 07:22:32;;;;;;;11.63;5.67;;;23.40;1.00;;;;;;5071212;28;20188;-84
2022/06/25 07:24:58;;;;;;;6.23;5.40;;;23.60;1.00;;;;;;5073627;28;20439;-84
2022/06/25 07:27:23;;;;;;;6.80;5.20;;;23.60;1.00;;;;;;5074117;28;20662;-80
2022/06/25 07:29:49;;;;;;;9.37;5.47;;;23.50;1.00;;;;;;5074609;28;20222;-79
2022/06/25 07:32:14;;;;;;;7.87;5.50;;;23.60;1.00;;;;;;5073303;28;20202;-79
2022/06/25 07:34:40;;;;;;;11.73;5.80;;;23.50;1.00;;;;;;5074451;28;20176;-79
2022/06/25 07:37:06;;;;;;;6.30;5.37;;;23.60;1.00;;;;;;5074535;28;20184;-79
2022/06/25 07:39:31;;;;;;;7.13;5.80;;;23.40;1.00;;;;;;5074665;28;20586;-79
2022/06/25 07:41:58;;;;;;;11.90;5.93;;;23.60;1.00;;;;;;5074633;28;20673;-79
2022/06/25 07:44:24;;;;;;;6.27;5.67;;;23.90;1.00;;;;;;5073956;28;20462;-79
2022/06/25 07:46:49;;;;;;;6.50;5.90;;;24.20;1.00;;;;;;5074240;28;20542;-80
2022/06/25 07:49:23;;;;;;;11.47;5.33;;;24.20;1.00;;;;;;5073960;28;20255;-79
2022/06/25 07:56:04;;;;;;;10.43;5.10;;;24.50;1.00;;;;;;5062722;28;21030;-78
2022/06/25 08:02:10;;;;;;;15.60;5.80;;;24.30;1.00;;;;;;5069750;28;20534;-83
2022/06/25 08:04:36;;;;;;;8.53;5.80;;;24.00;1.00;;;;;;5078966;28;20556;-84
2022/06/25 08:07:03;;;;;;;10.53;5.73;;;24.00;1.00;;;;;;5075288;28;20852;-84
2022/06/25 08:09:41;;;;;;;6.70;5.03;;;24.20;1.00;;;;;;5089167;28;20169;-84
2022/06/25 08:15:28;;;;;;;5.27;4.77;;;24.20;1.00;;;;;;5074108;28;20465;-79
2022/06/25 08:17:59;;;;;;;6.40;5.20;;;24.20;1.00;;;;;;5060751;28;20422;-79
2022/06/25 08:27:10;;;;;;;5.83;5.20;;;24.30;1.00;;;;;;5061926;28;20979;-85
2022/06/25 08:29:41;;;;;;;6.93;5.03;;;24.20;1.00;;;;;;5066523;28;20937;-77
2022/06/25 08:32:53;;;;;;;8.63;5.73;;;24.10;1.00;;;;;;5067437;28;20781;-78
2022/06/25 08:35:35;;;;;;;5.30;4.80;;;24.00;1.00;;;;;;5068369;28;20417;-76
2022/06/25 08:41:23;;;;;;;5.83;5.10;;;24.50;1.00;;;;;;5064306;28;20778;-77
2022/06/25 08:43:59;;;;;;;13.37;4.67;;;24.80;1.00;;;;;;5071913;28;20451;-77
2022/06/25 08:47:16;;;;;;;5.43;4.83;;;25.00;1.00;;;;;;5065504;28;20692;-77
2022/06/25 08:50:00;;;;;;;6.83;4.00;;;25.20;1.00;;;;;;5068367;28;20926;-77
2022/06/25 08:52:30;;;;;;;8.33;4.60;;;24.90;1.00;;;;;;5062009;28;20803;-77
2022/06/25 08:55:06;;;;;;;9.93;4.43;;;25.00;1.00;;;;;;5058112;28;20508;-77
2022/06/25 09:01:28;;;;;;;14.53;4.83;;;24.80;1.00;;;;;;5063449;28;20413;-84
2022/06/25 09:07:20;;;;;;;5.93;4.20;;;24.70;1.00;;;;;;5059600;28;20470;-84
2022/06/25 09:10:23;;;;;;;9.80;4.70;;;24.50;1.00;;;;;;5056489;28;20436;-89
2022/06/25 09:12:51;;;;;;;7.63;4.47;;;24.40;1.00;;;;;;5065405;28;20427;-88
2022/06/25 09:15:22;;;;;;;7.90;4.10;;;24.40;1.00;;;;;;5079077;28;20427;-87
2022/06/25 09:17:49;;;;;;;5.07;4.00;;;24.50;1.00;;;;;;5089471;28;20453;-83
2022/06/25 09:20:30;;;;;;;18.60;5.50;;;24.50;1.00;;;;;;5073649;28;20395;-81
2022/06/25 09:23:03;;;;;;;14.23;3.90;;;24.60;1.00;;;;;;5077676;28;20418;-79
2022/06/25 09:26:08;;;;;;;5.20;3.70;;;24.70;1.00;;;;;;5073325;28;20441;-79
2022/06/25 09:28:47;;;;;;;6.53;4.10;;;24.70;1.00;;;;;;5066313;28;20435;-79
2022/06/25 09:31:35;;;;;;;6.13;3.90;;;24.60;1.00;;;;;;5077382;28;20427;-78
2022/06/25 09:37:26;;;;;;;15.60;4.27;;;24.30;1.00;;;;;;5074350;28;20400;-78
2022/06/25 09:43:17;;;;;;;7.03;4.07;;;24.60;1.00;;;;;;5069521;28;20421;-73
2022/06/25 09:45:48;;;;;;;4.00;3.60;;;24.70;1.00;;;;;;5074801;28;20972;-69
2022/06/25 09:48:23;;;;;;;6.50;4.10;;;25.00;1.00;;;;;;5073519;28;20472;-69
2022/06/25 09:51:28;;;;;;;6.97;3.67;;;25.50;1.00;;;;;;5087030;28;20412;-69
2022/06/25 09:53:57;;;;;;;4.47;3.20;;;26.00;1.00;;;;;;5078478;28;20819;-69
2022/06/25 09:56:25;;;;;;;6.33;3.93;;;26.30;1.00;;;;;;5085854;28;20440;-71
2022/06/25 09:58:53;;;;;;;7.17;3.67;;;26.20;1.00;;;;;;5080044;28;20516;-71
2022/06/25 10:01:23;;;;;;;5.00;3.27;;;26.00;1.00;;;;;;5078453;28;20428;-69
2022/06/25 10:03:49;;;;;;;6.03;3.63;;;25.70;1.00;;;;;;5072619;28;20458;-70
2022/06/25 10:06:16;;;;;;;4.23;3.77;;;25.80;1.00;;;;;;5082820;28;20433;-69
2022/06/25 10:09:02;;;;;;;8.57;3.87;;;26.00;1.00;;;;;;5068963;28;20933;-69
2022/06/25 10:11:30;;;;;;;4.27;3.60;;;26.00;1.00;;;;;;5067461;28;20428;-69
2022/06/25 10:13:56;;;;;;;11.40;2.90;;;26.00;1.00;;;;;;5073337;28;20826;-74
2022/06/25 10:16:29;;;;;;;3.37;2.57;;;26.40;1.00;;;;;;5086602;28;20506;-74
2022/06/25 10:18:55;;;;;;;9.63;3.13;;;26.60;1.00;;;;;;5075846;28;20430;-75
2022/06/25 10:21:23;;;;;;;3.30;3.00;;;26.60;1.00;;;;;;5075540;28;20433;-74
2022/06/25 10:23:55;;;;;;;6.47;3.40;;;26.60;1.00;;;;;;5068277;28;20462;-75
2022/06/25 10:26:21;;;;;;;6.30;3.30;;;26.60;1.00;;;;;;5075770;28;20467;-75
2022/06/25 10:28:47;;;;;;;8.53;3.57;;;26.30;1.00;;;;;;5076364;28;20424;-74
2022/06/25 10:31:16;;;;;;;3.10;2.90;;;26.20;1.00;;;;;;5070498;28;20774;-75
2022/06/25 10:34:13;;;;;;;4.53;2.97;;;26.10;1.00;;;;;;5066643;28;21041;-75
2022/06/25 10:36:51;;;;;;;4.73;2.87;;;26.10;1.00;;;;;;5074471;28;20474;-75
2022/06/25 10:39:26;;;;;;;4.17;2.70;;;26.00;1.00;;;;;;5075503;28;20429;-75
2022/06/25 10:45:11;;;;;;;5.80;2.73;;;25.90;1.00;;;;;;5055875;28;20824;-76
2022/06/25 10:47:48;;;;;;;7.43;2.60;;;25.90;1.00;;;;;;5074058;28;20882;-75
2022/06/25 10:50:20;;;;;;;3.67;2.33;;;26.00;1.00;;;;;;5075274;28;20419;-75
2022/06/25 10:53:01;;;;;;;4.10;2.37;;;26.20;1.00;;;;;;5075335;28;20422;-75
2022/06/25 10:55:28;;;;;;;8.50;2.40;;;26.50;1.00;;;;;;5075267;28;20415;-77
2022/06/25 10:58:11;;;;;;;2.93;2.30;;;26.90;1.00;;;;;;5075346;28;20431;-76
2022/06/25 11:00:57;;;;;;;3.40;1.90;;;27.20;1.00;;;;;;5075777;28;20428;-69
2022/06/25 11:03:28;;;;;;;4.23;2.60;;;27.30;1.00;;;;;;5074968;28;20471;-69
2022/06/25 11:05:56;;;;;;;3.87;2.37;;;27.60;1.00;;;;;;5075092;28;20427;-69
2022/06/25 11:08:23;;;;;;;4.60;2.10;;;28.00;1.00;;;;;;5075109;28;20471;-69
2022/06/25 11:10:49;;;;;;;3.20;1.97;;;28.00;1.00;;;;;;5075002;28;20426;-70
2022/06/25 11:13:15;;;;;;;1.80;1.63;;;28.00;1.00;;;;;;5075190;28;20466;-69
2022/06/25 11:15:43;;;;;;;9.50;2.17;;;28.00;1.00;;;;;;5074885;28;20446;-69
2022/06/25 11:18:13;;;;;;;2.73;1.90;;;28.20;1.00;;;;;;5073541;28;20844;-69
2022/06/25 11:20:40;;;;;;;3.13;1.90;;;28.10;1.00;;;;;;5074796;28;20506;-69
2022/06/25 11:23:10;;;;;;;2.20;2.00;;;28.00;1.00;;;;;;5063201;28;20442;-68
2022/06/25 11:28:53;;;;;;;1.97;1.80;;;28.40;1.00;;;;;;5074621;28;20417;-69
2022/06/25 11:31:21;;;;;;;4.90;2.07;;;28.40;1.00;;;;;;5086921;28;20421;-75
2022/06/25 11:33:49;;;;;;;1.60;1.40;;;28.50;1.00;;;;;;5075627;28;20420;-76
2022/06/25 11:36:16;;;;;;;4.67;1.93;;;28.40;1.00;;;;;;5074573;28;20422;-76
2022/06/25 11:38:44;;;;;;;4.07;1.60;;;28.40;1.00;;;;;;5074260;28;20416;-76
2022/06/25 11:41:26;;;;;;;1.70;1.60;;;28.30;1.00;;;;;;5070100;28;20413;-75
2022/06/25 11:43:56;;;;;;;2.93;1.70;;;28.30;1.00;;;;;;5062420;28;20460;-76
2022/06/25 11:46:22;;;;;;;3.07;1.40;;;28.30;1.00;;;;;;5074693;28;20422;-75
2022/06/25 11:48:49;;;;;;;5.80;1.83;;;28.20;1.00;;;;;;5074152;28;20452;-75
2022/06/25 11:51:23;;;;;;;5.07;2.40;;;28.00;1.00;;;;;;5074030;28;20424;-75
2022/06/25 11:53:50;;;;;;;2.30;1.60;;;28.20;1.00;;;;;;5074134;28;20437;-75
2022/06/25 11:56:16;;;;;;;9.07;3.70;;;28.30;1.00;;;;;;5074132;28;20903;-75
2022/06/25 11:58:42;;;;;;;1.63;1.30;;;28.30;1.00;;;;;;5074126;28;20420;-75
2022/06/25 12:01:08;;;;;;;1.37;1.27;;;28.20;1.00;;;;;;5075234;28;20425;-69
2022/06/25 12:03:34;;;;;;;4.20;1.13;;;28.10;1.00;;;;;;5073874;28;20921;-69
2022/06/25 12:06:01;;;;;;;2.87;1.40;;;28.20;1.00;;;;;;5073945;28;20182;-69
2022/06/25 12:08:27;;;;;;;3.90;1.37;;;28.40;1.00;;;;;;5073778;28;20895;-68
2022/06/25 12:10:55;;;;;;;1.23;1.13;;;28.40;1.00;;;;;;5073749;28;20519;-68
2022/06/25 12:13:21;;;;;;;1.50;1.40;;;28.50;1.00;;;;;;5074216;28;20470;-68
2022/06/25 12:15:55;;;;;;;4.73;1.63;;;28.60;1.00;;;;;;5073615;28;20573;-69
2022/06/25 12:18:32;;;;;;;2.70;1.53;;;28.70;1.00;;;;;;5073665;28;20518;-68
2022/06/25 12:20:58;;;;;;;3.00;1.63;;;28.40;1.00;;;;;;5073543;28;20442;-69
2022/06/25 12:23:24;;;;;;;1.70;1.50;;;28.30;1.00;;;;;;5060216;28;20479;-69
2022/06/25 12:25:50;;;;;;;2.00;1.20;;;28.20;1.00;;;;;;5073453;28;20463;-69
2022/06/25 12:28:15;;;;;;;1.40;1.23;;;28.30;1.00;;;;;;5073498;28;20186;-69
2022/06/25 12:30:42;;;;;;;2.10;1.37;;;28.30;1.00;;;;;;5060183;28;20195;-75
2022/06/25 12:33:13;;;;;;;1.57;1.40;;;28.30;1.00;;;;;;5069380;28;20243;-75
2022/06/25 12:35:48;;;;;;;1.67;1.20;;;28.20;1.00;;;;;;5073217;28;20422;-76
2022/06/25 12:38:15;;;;;;;1.93;1.20;;;28.40;1.00;;;;;;5072377;28;20463;-75
2022/06/25 12:40:48;;;;;;;1.40;1.30;;;28.40;1.00;;;;;;5073150;28;20561;-75
2022/06/25 12:43:15;;;;;;;1.50;0.80;;;28.70;1.00;;;;;;5073232;28;20436;-76
2022/06/25 12:45:43;;;;;;;1.30;1.20;;;28.90;1.00;;;;;;5073491;28;20460;-77
2022/06/25 12:48:09;;;;;;;1.93;1.40;;;29.10;1.00;;;;;;5073066;28;20982;-77
2022/06/25 12:50:37;;;;;;;2.13;1.30;;;29.10;1.00;;;;;;5073070;28;20926;-75
2022/06/25 12:53:14;;;;;;;2.00;1.40;;;29.30;1.00;;;;;;5073160;28;20427;-87
2022/06/25 12:55:44;;;;;;;1.93;1.17;;;29.60;1.00;;;;;;5073713;28;20752;-87
2022/06/25 12:58:14;;;;;;;2.57;1.30;;;29.80;1.00;;;;;;5073840;28;20980;-87
2022/06/25 13:00:45;;;;;;;1.87;1.40;;;29.60;1.00;;;;;;5074047;28;20426;-86
2022/06/25 13:03:11;;;;;;;1.93;1.30;;;29.40;1.00;;;;;;5072035;28;20435;-84
2022/06/25 13:05:37;;;;;;;2.23;1.30;;;29.60;1.00;;;;;;5071916;28;20483;-84
2022/06/25 13:08:04;;;;;;;1.73;1.10;;;29.80;1.00;;;;;;5072965;28;20968;-83
2022/06/25 13:10:31;;;;;;;1.30;1.20;;;29.80;1.00;;;;;;5072926;28;20416;-83
2022/06/25 13:13:05;;;;;;;2.13;1.20;;;29.80;1.00;;;;;;5065822;28;20451;-80
2022/06/25 13:15:36;;;;;;;5.23;1.13;;;29.80;1.00;;;;;;5066870;28;20443;-81
2022/06/25 13:21:25;;;;;;;4.77;1.20;;;29.70;1.00;;;;;;5073707;28;20480;-82
2022/06/25 13:27:17;;;;;;;2.03;1.20;;;29.80;1.00;;;;;;5071163;28;20411;-82
2022/06/25 13:29:45;;;;;;;3.00;1.17;;;29.90;1.00;;;;;;5069512;28;20437;-84
2022/06/25 13:32:17;;;;;;;1.30;1.20;;;30.10;1.00;;;;;;5071478;28;20911;-81
2022/06/25 13:34:44;;;;;;;2.40;1.30;;;30.30;1.00;;;;;;5072517;28;20520;-80
2022/06/25 13:37:11;;;;;;;6.43;1.10;;;30.60;1.00;;;;;;5072928;28;20483;-69
2022/06/25 13:39:36;;;;;;;1.40;1.30;;;30.80;1.00;;;;;;5072587;28;20414;-68
2022/06/25 13:42:03;;;;;;;1.20;1.10;;;30.70;1.00;;;;;;5072502;28;20894;-68
2022/06/25 13:44:28;;;;;;;1.30;1.20;;;30.60;1.00;;;;;;5072593;28;20290;-68
2022/06/25 13:46:54;;;;;;;1.00;1.00;;;30.60;1.00;;;;;;5072331;28;20475;-68
2022/06/25 13:49:20;;;;;;;1.83;1.20;;;30.50;1.00;;;;;;5074646;28;20178;-69
2022/06/25 13:51:50;;;;;;;3.40;1.20;;;30.50;1.00;;;;;;5075512;28;20183;-70
2022/06/25 13:54:15;;;;;;;1.40;1.30;;;30.70;1.00;;;;;;5077034;28;20450;-69
2022/06/25 13:56:41;;;;;;;1.57;1.23;;;30.70;1.00;;;;;;5076210;28;20429;-69